createdAt,value
2022-12-18T00:00:30.325Z,71.92
2022-12-18T00:03:02.047Z,71.24
2022-12-18T00:05:33.715Z,70.68
2022-12-18T00:08:09.559Z,70.74
2022-12-18T00:10:41.360Z,70.93
2022-12-18T00:13:13.483Z,70.87
2022-12-18T00:15:45.108Z,70.87
2022-12-18T00:18:20.408Z,71.15
2022-12-18T00:20:52.343Z,71.18
2022-12-18T00:23:23.904Z,71.85
2022-12-18T00:25:55.885Z,71.67
2022-12-18T00:28:27.499Z,71.24
2022-12-18T00:31:10.914Z,71.46
2022-12-18T00:33:44.080Z,70.90
2022-12-18T00:36:21.448Z,71.11
2022-12-18T00:38:55.363Z,71.21
2022-12-18T00:41:46.765Z,71.51
2022-12-18T00:44:19.350Z,71.45
2022-12-18T00:46:51.059Z,70.99
2022-12-18T00:49:22.701Z,70.90
2022-12-18T00:51:54.756Z,70.93
2022-12-18T00:54:26.484Z,70.67
2022-12-18T00:56:58.050Z,70.76
2022-12-18T00:59:31.223Z,70.63
2022-12-18T01:02:03.088Z,71.06
2022-12-18T01:04:35.565Z,70.67
2022-12-18T01:07:10.084Z,71.23
2022-12-18T01:09:41.750Z,71.10
2022-12-18T01:12:13.304Z,72.07
2022-12-18T01:14:44.857Z,73.18
2022-12-18T01:17:16.447Z,72.92
2022-12-18T01:19:48.025Z,73.50
2022-12-18T01:22:19.663Z,73.62
2022-12-18T01:24:51.243Z,73.87
2022-12-18T01:27:22.849Z,74.12
2022-12-18T01:29:56.992Z,73.81
2022-12-18T01:32:31.662Z,74.18
2022-12-18T01:35:03.374Z,74.35
2022-12-18T01:37:35.120Z,74.08
2022-12-18T01:40:07.547Z,74.22
2022-12-18T01:42:39.147Z,74.04
2022-12-18T01:45:16.984Z,73.81
2022-12-18T01:47:52.867Z,74.06
2022-12-18T01:50:40.918Z,74.31
2022-12-18T01:53:22.542Z,74.14
2022-12-18T01:55:57.067Z,74.26
2022-12-18T01:58:41.742Z,74.66
2022-12-18T02:01:13.607Z,74.67
2022-12-18T02:03:45.994Z,74.65
2022-12-18T02:06:24.397Z,75.20
2022-12-18T02:09:17.711Z,74.37
2022-12-18T02:12:18.238Z,74.80
2022-12-18T02:15:01.631Z,75.26
2022-12-18T02:17:42.421Z,74.92
2022-12-18T02:20:33.864Z,74.56
2022-12-18T02:23:39.797Z,74.07
2022-12-18T02:26:19.639Z,73.74
2022-12-18T02:29:07.032Z,73.85
2022-12-18T02:31:51.237Z,73.72
2022-12-18T02:34:29.133Z,73.86
2022-12-18T02:37:05.544Z,73.54
2022-12-18T02:39:41.329Z,73.80
2022-12-18T02:42:18.546Z,73.88
2022-12-18T02:44:52.272Z,73.62
2022-12-18T02:47:33.011Z,73.63
2022-12-18T02:50:08.856Z,73.40
2022-12-18T02:53:17.994Z,73.61
2022-12-18T02:56:05.855Z,74.04
2022-12-18T02:59:00.203Z,74.37
2022-12-18T03:01:56.960Z,73.91
2022-12-18T03:04:37.095Z,73.43
2022-12-18T03:07:16.670Z,73.50
2022-12-18T03:09:52.391Z,73.08
2022-12-18T03:12:40.194Z,73.18
2022-12-18T03:15:29.548Z,72.93
2022-12-18T03:18:17.163Z,72.83
2022-12-18T03:20:52.543Z,72.82
2022-12-18T03:23:31.410Z,72.24
2022-12-18T03:26:10.313Z,72.49
2022-12-18T03:28:50.540Z,72.02
2022-12-18T03:31:27.410Z,72.12
2022-12-18T03:34:03.080Z,72.55
2022-12-18T03:36:45.263Z,72.50
2022-12-18T03:39:20.519Z,72.39
2022-12-18T03:42:29.980Z,72.40
2022-12-18T03:45:28.475Z,72.28
2022-12-18T03:48:15.504Z,72.26
2022-12-18T03:51:08.796Z,72.30
2022-12-18T03:53:56.652Z,72.27
2022-12-18T03:56:37.717Z,72.25
2022-12-18T03:59:13.629Z,72.09
2022-12-18T04:01:52.438Z,71.86
2022-12-18T04:04:28.418Z,71.71
2022-12-18T04:07:02.493Z,71.67
2022-12-18T04:09:39.609Z,71.53
2022-12-18T04:12:11.599Z,70.93
2022-12-18T04:14:43.291Z,71.28
2022-12-18T04:17:15.213Z,71.36
2022-12-18T04:19:46.886Z,71.50
2022-12-18T04:22:19.008Z,71.68
2022-12-18T04:24:55.946Z,71.59
2022-12-18T04:27:35.580Z,71.67
2022-12-18T04:30:10.203Z,71.70
2022-12-18T04:32:45.520Z,71.80
2022-12-18T04:35:19.907Z,72.71
2022-12-18T04:37:52.207Z,72.18
2022-12-18T04:40:23.921Z,72.14
2022-12-18T04:42:56.304Z,72.28
2022-12-18T04:45:27.983Z,71.94
2022-12-18T04:48:00.940Z,72.30
2022-12-18T04:50:32.519Z,72.20
2022-12-18T04:53:04.170Z,72.36
2022-12-18T04:55:35.790Z,72.41
2022-12-18T04:58:07.420Z,72.21
2022-12-18T05:00:39.083Z,72.37
2022-12-18T05:03:10.791Z,72.45
2022-12-18T05:05:42.348Z,72.33
2022-12-18T05:08:13.932Z,72.22
2022-12-18T05:10:45.514Z,71.95
2022-12-18T05:13:17.588Z,71.97
2022-12-18T05:15:53.449Z,72.04
2022-12-18T05:18:26.067Z,72.05
2022-12-18T05:20:57.656Z,72.15
2022-12-18T05:23:29.403Z,72.46
2022-12-18T05:26:02.900Z,72.44
2022-12-18T05:28:36.239Z,72.36
2022-12-18T05:31:08.893Z,72.14
2022-12-18T05:33:40.926Z,72.16
2022-12-18T05:36:12.770Z,72.17
2022-12-18T05:38:44.348Z,72.00
2022-12-18T05:41:15.911Z,71.89
2022-12-18T05:43:47.644Z,71.92
2022-12-18T05:46:19.646Z,72.23
2022-12-18T05:48:51.928Z,72.18
2022-12-18T05:51:23.719Z,72.01
2022-12-18T05:53:55.743Z,72.69
2022-12-18T05:56:27.344Z,72.83
2022-12-18T05:58:58.901Z,72.51
2022-12-18T06:01:30.545Z,73.00
2022-12-18T06:04:02.831Z,73.03
2022-12-18T06:06:34.979Z,73.41
2022-12-18T06:09:10.592Z,73.85
2022-12-18T06:11:42.159Z,73.45
2022-12-18T06:14:14.005Z,73.28
2022-12-18T06:16:45.545Z,74.22
2022-12-18T06:19:17.887Z,73.96
2022-12-18T06:21:50.265Z,74.08
2022-12-18T06:24:21.896Z,73.90
2022-12-18T06:26:53.483Z,74.18
2022-12-18T06:29:25.112Z,73.60
2022-12-18T06:31:56.671Z,73.45
2022-12-18T06:34:28.259Z,73.94
2022-12-18T06:36:59.986Z,74.07
2022-12-18T06:39:31.608Z,74.04
2022-12-18T06:42:04.256Z,74.15
2022-12-18T06:44:39.867Z,74.32
2022-12-18T06:47:11.476Z,74.11
2022-12-18T06:49:44.982Z,75.24
2022-12-18T06:52:16.620Z,75.16
2022-12-18T06:54:48.253Z,75.48
2022-12-18T06:57:19.852Z,76.07
2022-12-18T06:59:51.420Z,76.09
2022-12-18T07:02:23.064Z,76.49
2022-12-18T07:04:54.735Z,76.33
2022-12-18T07:07:26.258Z,76.09
2022-12-18T07:09:57.842Z,75.99
2022-12-18T07:12:29.380Z,75.93
2022-12-18T07:15:00.977Z,76.18
2022-12-18T07:17:32.510Z,76.84
2022-12-18T07:20:04.736Z,76.90
2022-12-18T07:22:36.379Z,76.67
2022-12-18T07:25:08.469Z,76.98
2022-12-18T07:27:40.127Z,76.19
2022-12-18T07:30:12.483Z,77.09
2022-12-18T07:32:46.955Z,77.02
2022-12-18T07:35:23.348Z,77.65
2022-12-18T07:37:56.405Z,77.28
2022-12-18T07:40:27.959Z,77.05
2022-12-18T07:42:59.578Z,77.24
2022-12-18T07:45:34.242Z,77.95
2022-12-18T07:48:05.850Z,77.65
2022-12-18T07:50:38.479Z,78.02
2022-12-18T07:53:13.065Z,77.78
2022-12-18T07:56:17.895Z,78.19
2022-12-18T07:58:38.364Z,78.63
2022-12-18T08:01:12.988Z,78.69
2022-12-18T08:03:44.665Z,79.13
2022-12-18T08:06:16.250Z,78.37
2022-12-18T08:08:54.456Z,77.84
2022-12-18T08:11:28.264Z,77.69
2022-12-18T08:13:59.974Z,77.70
2022-12-18T08:16:31.704Z,77.25
2022-12-18T08:19:03.877Z,77.29
2022-12-18T08:21:35.458Z,77.17
2022-12-18T08:24:07.690Z,76.83
2022-12-18T08:26:39.639Z,76.75
2022-12-18T08:29:11.672Z,76.38
2022-12-18T08:31:43.436Z,76.26
2022-12-18T08:34:18.813Z,76.41
2022-12-18T08:36:53.331Z,76.16
2022-12-18T08:39:24.971Z,75.75
2022-12-18T08:42:15.087Z,75.97
2022-12-18T08:44:46.652Z,75.91
2022-12-18T08:47:23.287Z,76.06
2022-12-18T08:49:54.845Z,75.86
2022-12-18T08:52:26.553Z,75.42
2022-12-18T08:54:58.178Z,75.66
2022-12-18T08:57:29.771Z,75.56
2022-12-18T09:00:01.397Z,75.28
2022-12-18T09:02:36.059Z,75.67
2022-12-18T09:05:07.993Z,75.54
2022-12-18T09:07:39.651Z,75.62
2022-12-18T09:10:11.228Z,74.83
2022-12-18T09:12:42.920Z,75.22
2022-12-18T09:15:14.634Z,75.25
2022-12-18T09:17:46.248Z,75.19
2022-12-18T09:20:17.825Z,75.64
2022-12-18T09:22:49.886Z,75.92
2022-12-18T09:25:21.698Z,75.72
2022-12-18T09:27:53.913Z,75.28
2022-12-18T09:30:25.489Z,75.47
2022-12-18T09:32:57.443Z,75.50
2022-12-18T09:35:29.039Z,75.04
2022-12-18T09:38:00.627Z,75.92
2022-12-18T09:40:38.514Z,76.03
2022-12-18T09:43:19.813Z,75.34
2022-12-18T09:46:02.892Z,75.71
2022-12-18T09:48:42.708Z,75.45
2022-12-18T09:51:20.688Z,75.29
2022-12-18T09:53:58.667Z,75.05
2022-12-18T09:56:36.304Z,76.81
2022-12-18T09:59:22.358Z,75.91
2022-12-18T10:01:54.027Z,74.91
2022-12-18T10:04:31.447Z,74.10
2022-12-18T10:07:25.844Z,73.60
2022-12-18T10:10:32.859Z,73.00
2022-12-18T10:13:32.081Z,73.23
2022-12-18T10:16:28.455Z,72.54
2022-12-18T10:19:26.183Z,72.90
2022-12-18T10:22:03.737Z,72.70
2022-12-18T10:24:50.955Z,73.04
2022-12-18T10:27:27.765Z,72.76
2022-12-18T10:30:00.009Z,72.67
2022-12-18T10:32:31.964Z,72.45
2022-12-18T10:35:03.857Z,72.52
2022-12-18T10:37:35.481Z,72.31
2022-12-18T10:40:09.887Z,72.43
2022-12-18T10:42:43.318Z,71.80
2022-12-18T10:45:18.691Z,71.94
2022-12-18T10:47:50.887Z,71.88
2022-12-18T10:51:09.046Z,71.86
2022-12-18T10:53:32.017Z,71.47
2022-12-18T10:56:07.204Z,71.25
2022-12-18T10:58:42.047Z,71.64
2022-12-18T11:01:17.080Z,71.67
2022-12-18T11:03:51.392Z,71.57
2022-12-18T11:06:25.680Z,71.65
2022-12-18T11:09:09.374Z,71.41
2022-12-18T11:11:50.655Z,71.72
2022-12-18T11:14:26.821Z,71.03
2022-12-18T11:20:01.264Z,71.54
2022-12-18T11:22:35.820Z,71.30
2022-12-18T11:28:40.128Z,70.92
2022-12-18T11:31:23.078Z,70.70
2022-12-18T11:34:27.976Z,71.02
2022-12-18T11:36:56.094Z,70.77
2022-12-18T11:39:56.103Z,70.74
2022-12-18T11:42:44.686Z,70.61
2022-12-18T11:45:29.402Z,70.65
2022-12-18T11:48:18.080Z,70.48
2022-12-18T11:50:55.218Z,70.31
2022-12-18T11:53:28.075Z,70.68
2022-12-18T11:56:33.629Z,70.56
2022-12-18T11:59:21.775Z,70.50
2022-12-18T12:02:00.961Z,70.66
2022-12-18T12:04:49.401Z,70.81
2022-12-18T12:07:48.115Z,70.52
2022-12-18T12:10:31.811Z,69.92
2022-12-18T12:13:21.775Z,69.84
2022-12-18T12:16:18.419Z,69.70
2022-12-18T12:19:26.737Z,69.42
2022-12-18T12:22:14.914Z,69.30
2022-12-18T12:24:49.383Z,69.59
2022-12-18T12:27:38.680Z,69.67
2022-12-18T12:30:29.204Z,69.64
2022-12-18T12:33:34.727Z,69.52
2022-12-18T12:36:27.725Z,70.33
2022-12-18T12:39:06.202Z,71.22
2022-12-18T12:41:58.607Z,71.17
2022-12-18T12:44:36.601Z,68.30
2022-12-18T12:47:17.244Z,67.79
2022-12-18T12:49:51.634Z,67.69
2022-12-18T12:52:36.904Z,68.09
2022-12-18T12:55:18.524Z,72.19
2022-12-18T12:58:20.163Z,70.22
2022-12-18T13:01:23.148Z,68.93
2022-12-18T13:04:07.111Z,67.66
2022-12-18T13:07:05.530Z,67.65
2022-12-18T13:10:18.978Z,67.78
2022-12-18T13:13:11.042Z,66.69
2022-12-18T13:15:48.301Z,66.27
2022-12-18T13:18:26.317Z,66.06
2022-12-18T13:21:01.563Z,66.20
2022-12-18T13:23:39.128Z,65.77
2022-12-18T13:26:11.059Z,66.23
2022-12-18T13:28:49.002Z,66.71
2022-12-18T13:31:42.043Z,68.03
2022-12-18T13:34:26.173Z,68.67
2022-12-18T13:37:33.848Z,69.28
2022-12-18T13:40:45.785Z,70.58
2022-12-18T13:43:23.784Z,73.13
2022-12-18T13:46:20.099Z,71.75
2022-12-18T13:48:59.936Z,71.76
2022-12-18T13:51:34.599Z,72.45
2022-12-18T13:54:27.040Z,72.95
2022-12-18T13:56:58.598Z,72.60
2022-12-18T13:59:40.756Z,73.01
2022-12-18T14:02:24.089Z,73.38
2022-12-18T14:04:56.448Z,74.04
2022-12-18T14:07:36.285Z,74.26
2022-12-18T14:10:42.071Z,74.43
2022-12-18T14:13:10.617Z,74.59
2022-12-18T14:15:45.355Z,74.57
2022-12-18T14:18:26.518Z,75.22
2022-12-18T14:21:00.804Z,75.07
2022-12-18T14:23:34.309Z,74.30
2022-12-18T14:26:30.354Z,74.59
2022-12-18T14:29:20.809Z,74.68
2022-12-18T14:32:18.715Z,75.04
2022-12-18T14:34:55.137Z,75.53
2022-12-18T14:37:28.461Z,76.00
2022-12-18T14:40:12.253Z,75.17
2022-12-18T14:42:43.944Z,75.25
2022-12-18T14:45:41.785Z,75.47
2022-12-18T14:48:21.699Z,76.03
2022-12-18T14:50:57.902Z,75.88
2022-12-18T14:53:59.051Z,75.63
2022-12-18T14:56:37.937Z,75.48
2022-12-18T14:59:24.244Z,81.26
2022-12-18T15:02:29.845Z,77.36
2022-12-18T15:05:15.517Z,75.32
2022-12-18T15:07:53.488Z,75.14
2022-12-18T15:10:27.769Z,75.81
2022-12-18T15:13:03.502Z,76.39
2022-12-18T15:15:35.296Z,76.38
2022-12-18T15:18:11.280Z,76.43
2022-12-18T15:20:56.947Z,76.65
2022-12-18T15:23:36.845Z,77.25
2022-12-18T15:26:13.738Z,76.94
2022-12-18T15:28:53.963Z,76.93
2022-12-18T15:31:31.047Z,76.86
2022-12-18T15:34:15.369Z,77.11
2022-12-18T15:36:47.703Z,77.21
2022-12-18T15:39:19.306Z,77.47
2022-12-18T15:42:09.905Z,76.92
2022-12-18T15:44:41.649Z,76.88
2022-12-18T15:47:14.022Z,76.83
2022-12-18T15:49:45.744Z,76.17
2022-12-18T15:52:26.882Z,76.79
2022-12-18T15:55:17.097Z,76.59
2022-12-18T15:57:48.765Z,81.00
2022-12-18T16:00:20.453Z,77.91
2022-12-18T16:02:52.204Z,76.55
2022-12-18T16:05:25.095Z,75.61
2022-12-18T16:07:56.793Z,75.73
2022-12-18T16:10:28.504Z,76.08
2022-12-18T16:13:00.123Z,74.62
2022-12-18T16:15:34.515Z,75.26
2022-12-18T16:18:06.169Z,75.89
2022-12-18T16:20:41.344Z,75.61
2022-12-18T16:23:13.105Z,75.66
2022-12-18T16:25:44.822Z,77.78
2022-12-18T16:28:16.406Z,76.57
2022-12-18T16:30:48.192Z,76.22
2022-12-18T16:33:26.246Z,76.66
2022-12-18T16:35:57.894Z,76.66
2022-12-18T16:38:29.540Z,77.03
2022-12-18T16:41:19.610Z,76.90
2022-12-18T16:43:54.849Z,77.20
2022-12-18T16:46:30.383Z,77.25
2022-12-18T16:49:02.074Z,77.24
2022-12-18T16:51:34.135Z,76.87
2022-12-18T16:54:10.205Z,76.48
2022-12-18T16:56:43.573Z,76.36
2022-12-18T16:59:15.885Z,76.52
2022-12-18T17:01:47.903Z,75.94
2022-12-18T17:04:21.121Z,76.03
2022-12-18T17:06:54.000Z,76.00
2022-12-18T17:09:25.800Z,75.73
2022-12-18T17:11:57.515Z,76.00
2022-12-18T17:14:29.206Z,75.62
2022-12-18T17:17:21.004Z,75.75
2022-12-18T17:19:52.938Z,75.91
2022-12-18T17:22:28.056Z,75.72
2022-12-18T17:24:59.659Z,75.24
2022-12-18T17:27:31.568Z,74.69
2022-12-18T17:30:03.783Z,74.71
2022-12-18T17:32:35.392Z,74.73
2022-12-18T17:35:07.657Z,74.55
2022-12-18T17:37:40.214Z,74.82
2022-12-18T17:40:11.865Z,74.68
2022-12-18T17:42:43.941Z,74.63
2022-12-18T17:45:15.746Z,74.14
2022-12-18T17:47:47.682Z,74.10
2022-12-18T17:50:22.317Z,74.52
2022-12-18T17:52:57.828Z,74.37
2022-12-18T17:55:32.681Z,74.32
2022-12-18T17:58:04.364Z,74.25
2022-12-18T18:00:35.962Z,73.89
2022-12-18T18:03:07.717Z,73.79
2022-12-18T18:05:40.871Z,74.24
2022-12-18T18:08:13.551Z,75.44
2022-12-18T18:10:45.253Z,74.03
2022-12-18T18:13:46.900Z,73.76
2022-12-18T18:16:19.009Z,73.37
2022-12-18T18:18:50.671Z,73.48
2022-12-18T18:21:22.287Z,73.50
2022-12-18T18:23:54.328Z,73.55
2022-12-18T18:26:29.230Z,73.54
2022-12-18T18:29:05.148Z,74.22
2022-12-18T18:31:40.991Z,74.04
2022-12-18T18:34:18.848Z,73.83
2022-12-18T18:36:51.227Z,73.64
2022-12-18T18:39:23.595Z,73.68
2022-12-18T18:41:59.773Z,74.01
2022-12-18T18:44:31.552Z,73.78
2022-12-18T18:47:04.412Z,73.50
2022-12-18T18:49:41.365Z,73.44
2022-12-18T18:52:12.987Z,73.95
2022-12-18T18:55:10.752Z,73.81
2022-12-18T18:57:36.144Z,73.96
2022-12-18T19:00:10.427Z,73.86
2022-12-18T19:02:42.454Z,73.67
2022-12-18T19:05:14.144Z,72.94
2022-12-18T19:07:45.696Z,74.12
2022-12-18T19:10:17.721Z,72.99
2022-12-18T19:13:10.960Z,73.66
2022-12-18T19:15:42.600Z,74.19
2022-12-18T19:18:15.395Z,74.10
2022-12-18T19:21:01.412Z,74.39
2022-12-18T19:23:34.074Z,74.03
2022-12-18T19:29:04.067Z,73.83
2022-12-18T19:31:37.233Z,74.50
2022-12-18T19:34:09.551Z,74.28
2022-12-18T19:36:41.476Z,74.12
2022-12-18T19:39:17.300Z,74.13
2022-12-18T19:41:48.978Z,73.30
2022-12-18T19:44:20.607Z,73.53
2022-12-18T19:46:52.251Z,73.26
2022-12-18T19:49:24.821Z,73.26
2022-12-18T19:51:56.648Z,73.19
2022-12-18T19:54:28.332Z,73.55
2022-12-18T19:56:59.876Z,73.44
2022-12-18T19:59:31.405Z,73.49
2022-12-18T20:02:03.360Z,73.21
2022-12-18T20:04:35.114Z,72.88
2022-12-18T20:07:06.765Z,72.63
2022-12-18T20:09:38.605Z,72.93
2022-12-18T20:12:10.282Z,72.54
2022-12-18T20:14:41.930Z,73.02
2022-12-18T20:17:13.533Z,72.93
2022-12-18T20:19:45.404Z,73.20
2022-12-18T20:22:18.769Z,72.63
2022-12-18T20:24:50.371Z,73.23
2022-12-18T20:27:22.301Z,72.23
2022-12-18T20:29:55.913Z,72.38
2022-12-18T20:32:35.356Z,71.87
2022-12-18T20:35:08.705Z,71.62
2022-12-18T20:37:42.829Z,71.88
2022-12-18T20:40:17.894Z,71.70
2022-12-18T20:42:52.323Z,71.52
2022-12-18T20:45:24.626Z,71.69
2022-12-18T20:47:56.313Z,71.21
2022-12-18T20:50:28.081Z,71.03
2022-12-18T20:52:59.673Z,69.95
2022-12-18T20:55:31.237Z,69.54
2022-12-18T20:58:02.811Z,70.43
2022-12-18T21:00:34.782Z,69.66
2022-12-18T21:03:06.456Z,69.71
2022-12-18T21:05:38.072Z,69.61
2022-12-18T21:08:11.987Z,69.71
2022-12-18T21:10:45.446Z,69.60
2022-12-18T21:13:17.408Z,69.11
2022-12-18T21:15:53.489Z,69.60
2022-12-18T21:18:25.617Z,69.09
2022-12-18T21:20:57.272Z,68.88
2022-12-18T21:23:29.297Z,68.71
2022-12-18T21:26:34.938Z,68.66
2022-12-18T21:29:25.061Z,69.31
2022-12-18T21:31:56.978Z,69.04
2022-12-18T21:34:30.336Z,68.45
2022-12-18T21:37:02.266Z,68.88
2022-12-18T21:39:35.127Z,68.72
2022-12-18T21:42:25.370Z,69.21
2022-12-18T21:44:57.492Z,69.55
2022-12-18T21:47:30.088Z,69.08
2022-12-18T21:50:03.837Z,69.29
2022-12-18T21:52:35.434Z,69.16
2022-12-18T21:55:09.893Z,69.42
2022-12-18T21:57:41.939Z,69.66
2022-12-18T22:00:18.329Z,69.31
2022-12-18T22:03:17.790Z,69.39
2022-12-18T22:05:44.737Z,69.02
2022-12-18T22:08:16.304Z,69.42
2022-12-18T22:10:50.242Z,68.74
2022-12-18T22:13:22.051Z,68.96
2022-12-18T22:15:53.689Z,68.47
2022-12-18T22:18:25.277Z,68.84
2022-12-18T22:21:04.423Z,68.86
2022-12-18T22:23:36.002Z,68.61
2022-12-18T22:26:10.766Z,68.42
2022-12-18T22:29:00.722Z,69.00
2022-12-18T22:31:37.416Z,69.15
2022-12-18T22:34:09.321Z,69.08
2022-12-18T22:36:43.547Z,69.83
2022-12-18T22:39:21.143Z,70.11
2022-12-18T22:41:53.542Z,70.38
2022-12-18T22:44:27.808Z,70.56
2022-12-18T22:47:06.640Z,70.16
2022-12-18T22:49:39.209Z,70.57
2022-12-18T22:52:10.861Z,69.65
2022-12-18T22:54:42.454Z,69.73
2022-12-18T22:57:14.178Z,69.95
2022-12-18T22:59:46.525Z,69.87
2022-12-18T23:02:21.387Z,70.11
2022-12-18T23:04:53.131Z,70.13
2022-12-18T23:07:24.960Z,69.13
2022-12-18T23:09:59.601Z,69.60
2022-12-18T23:12:37.468Z,69.08
2022-12-18T23:15:11.082Z,69.49
2022-12-18T23:17:42.875Z,69.29
2022-12-18T23:20:14.501Z,70.01
2022-12-18T23:22:48.888Z,70.26
2022-12-18T23:25:20.636Z,69.84
2022-12-18T23:27:52.312Z,70.03
2022-12-18T23:30:24.119Z,69.90
2022-12-18T23:32:57.776Z,70.14
2022-12-18T23:35:30.437Z,70.10
2022-12-18T23:38:05.215Z,69.92
2022-12-18T23:40:36.734Z,70.01
2022-12-18T23:43:10.381Z,70.76
2022-12-18T23:45:41.970Z,70.95
2022-12-18T23:48:13.558Z,71.12
2022-12-18T23:50:45.294Z,70.98
2022-12-18T23:53:16.898Z,70.90
2022-12-18T23:55:53.019Z,70.54
2022-12-18T23:58:27.960Z,70.62
